sensor_id;sensor_type;location;lat;lon;timestamp;P1;durP1;ratioP1;P2;durP2;ratioP2
27031;SDS011;14580;52.918;9.214;2024-01-27T00:00:10;4.77;;;1.50;;
27031;SDS011;14580;52.918;9.214;2024-01-27T00:02:36;5.63;;;1.93;;
27031;SDS011;14580;52.918;9.214;2024-01-27T00:05:02;4.67;;;2.80;;
27031;SDS011;14580;52.918;9.214;2024-01-27T00:07:28;12.10;;;1.43;;
27031;SDS011;14580;52.918;9.214;2024-01-27T00:09:54;3.93;;;2.00;;
27031;SDS011;14580;52.918;9.214;2024-01-27T00:12:21;2.10;;;1.27;;
27031;SDS011;14580;52.918;9.214;2024-01-27T00:14:47;5.40;;;1.17;;
27031;SDS011;14580;52.918;9.214;2024-01-27T00:17:12;7.00;;;1.33;;
27031;SDS011;14580;52.918;9.214;2024-01-27T00:19:38;4.90;;;1.23;;
27031;SDS011;14580;52.918;9.214;2024-01-27T00:22:04;4.23;;;1.83;;
27031;SDS011;14580;52.918;9.214;2024-01-27T00:24:31;11.07;;;1.53;;
27031;SDS011;14580;52.918;9.214;2024-01-27T00:26:57;6.70;;;1.53;;
27031;SDS011;14580;52.918;9.214;2024-01-27T00:29:23;5.13;;;0.77;;
27031;SDS011;14580;52.918;9.214;2024-01-27T00:31:51;4.37;;;2.23;;
27031;SDS011;14580;52.918;9.214;2024-01-27T00:34:19;10.87;;;2.20;;
27031;SDS011;14580;52.918;9.214;2024-01-27T00:36:45;9.87;;;2.50;;
27031;SDS011;14580;52.918;9.214;2024-01-27T00:39:17;5.73;;;1.63;;
27031;SDS011;14580;52.918;9.214;2024-01-27T00:41:44;4.97;;;1.23;;
27031;SDS011;14580;52.918;9.214;2024-01-27T00:44:10;9.13;;;1.20;;
27031;SDS011;14580;52.918;9.214;2024-01-27T00:46:36;2.70;;;1.00;;
27031;SDS011;14580;52.918;9.214;2024-01-27T00:49:03;5.63;;;1.37;;
27031;SDS011;14580;52.918;9.214;2024-01-27T00:51:28;2.90;;;1.20;;
27031;SDS011;14580;52.918;9.214;2024-01-27T00:53:54;5.60;;;2.00;;
27031;SDS011;14580;52.918;9.214;2024-01-27T00:56:20;2.93;;;1.03;;
27031;SDS011;14580;52.918;9.214;2024-01-27T00:58:46;6.80;;;1.67;;
27031;SDS011;14580;52.918;9.214;2024-01-27T01:01:12;8.17;;;0.77;;
27031;SDS011;14580;52.918;9.214;2024-01-27T01:03:38;12.20;;;1.70;;
27031;SDS011;14580;52.918;9.214;2024-01-27T01:06:03;0.47;;;0.47;;
27031;SDS011;14580;52.918;9.214;2024-01-27T01:08:30;2.10;;;1.13;;
27031;SDS011;14580;52.918;9.214;2024-01-27T01:10:57;7.43;;;1.53;;
27031;SDS011;14580;52.918;9.214;2024-01-27T01:13:23;3.83;;;0.90;;
27031;SDS011;14580;52.918;9.214;2024-01-27T01:15:48;3.67;;;0.90;;
27031;SDS011;14580;52.918;9.214;2024-01-27T01:18:14;2.80;;;1.10;;
27031;SDS011;14580;52.918;9.214;2024-01-27T01:20:40;3.37;;;0.90;;
27031;SDS011;14580;52.918;9.214;2024-01-27T01:23:06;5.97;;;1.00;;
27031;SDS011;14580;52.918;9.214;2024-01-27T01:25:32;4.20;;;1.80;;
27031;SDS011;14580;52.918;9.214;2024-01-27T01:27:58;6.57;;;1.67;;
27031;SDS011;14580;52.918;9.214;2024-01-27T01:30:24;5.23;;;0.77;;
27031;SDS011;14580;52.918;9.214;2024-01-27T01:32:50;7.63;;;1.53;;
27031;SDS011;14580;52.918;9.214;2024-01-27T01:35:16;5.03;;;0.83;;
27031;SDS011;14580;52.918;9.214;2024-01-27T01:37:42;1.23;;;0.70;;
27031;SDS011;14580;52.918;9.214;2024-01-27T01:40:08;4.27;;;1.37;;
27031;SDS011;14580;52.918;9.214;2024-01-27T01:42:34;10.07;;;2.83;;
27031;SDS011;14580;52.918;9.214;2024-01-27T01:45:00;4.03;;;0.60;;
27031;SDS011;14580;52.918;9.214;2024-01-27T01:47:26;4.10;;;1.13;;
27031;SDS011;14580;52.918;9.214;2024-01-27T01:49:52;10.73;;;1.23;;
27031;SDS011;14580;52.918;9.214;2024-01-27T01:52:18;10.30;;;1.73;;
27031;SDS011;14580;52.918;9.214;2024-01-27T01:54:49;10.57;;;1.27;;
27031;SDS011;14580;52.918;9.214;2024-01-27T01:57:16;9.33;;;1.20;;
27031;SDS011;14580;52.918;9.214;2024-01-27T01:59:42;7.83;;;0.87;;
27031;SDS011;14580;52.918;9.214;2024-01-27T02:02:08;2.33;;;1.33;;
27031;SDS011;14580;52.918;9.214;2024-01-27T02:04:44;3.37;;;1.00;;
27031;SDS011;14580;52.918;9.214;2024-01-27T02:07:13;1.40;;;0.70;;
27031;SDS011;14580;52.918;9.214;2024-01-27T02:09:39;9.63;;;1.17;;
27031;SDS011;14580;52.918;9.214;2024-01-27T02:12:05;2.77;;;1.20;;
27031;SDS011;14580;52.918;9.214;2024-01-27T02:14:31;1.10;;;1.00;;
27031;SDS011;14580;52.918;9.214;2024-01-27T02:16:57;1.50;;;1.33;;
27031;SDS011;14580;52.918;9.214;2024-01-27T02:19:24;5.30;;;1.23;;
27031;SDS011;14580;52.918;9.214;2024-01-27T02:21:50;2.20;;;1.37;;
27031;SDS011;14580;52.918;9.214;2024-01-27T02:24:15;2.73;;;1.10;;
27031;SDS011;14580;52.918;9.214;2024-01-27T02:26:41;1.90;;;0.87;;
27031;SDS011;14580;52.918;9.214;2024-01-27T02:29:07;0.83;;;0.60;;
27031;SDS011;14580;52.918;9.214;2024-01-27T02:31:33;2.70;;;1.37;;
27031;SDS011;14580;52.918;9.214;2024-01-27T02:33:59;2.83;;;1.17;;
27031;SDS011;14580;52.918;9.214;2024-01-27T02:36:25;6.13;;;1.60;;
27031;SDS011;14580;52.918;9.214;2024-01-27T02:38:50;5.03;;;1.33;;
27031;SDS011;14580;52.918;9.214;2024-01-27T02:41:16;3.30;;;0.83;;
27031;SDS011;14580;52.918;9.214;2024-01-27T02:43:42;5.07;;;1.10;;
27031;SDS011;14580;52.918;9.214;2024-01-27T02:46:10;5.00;;;0.97;;
27031;SDS011;14580;52.918;9.214;2024-01-27T02:48:41;5.30;;;1.80;;
27031;SDS011;14580;52.918;9.214;2024-01-27T02:51:07;0.63;;;0.63;;
27031;SDS011;14580;52.918;9.214;2024-01-27T02:53:34;7.53;;;1.13;;
27031;SDS011;14580;52.918;9.214;2024-01-27T02:56:00;0.80;;;0.80;;
27031;SDS011;14580;52.918;9.214;2024-01-27T02:58:26;5.20;;;1.67;;
27031;SDS011;14580;52.918;9.214;2024-01-27T03:00:52;6.60;;;1.37;;
27031;SDS011;14580;52.918;9.214;2024-01-27T03:03:18;3.87;;;1.40;;
27031;SDS011;14580;52.918;9.214;2024-01-27T03:05:44;7.13;;;1.53;;
27031;SDS011;14580;52.918;9.214;2024-01-27T03:08:10;5.17;;;1.10;;
27031;SDS011;14580;52.918;9.214;2024-01-27T03:10:36;6.67;;;1.70;;
27031;SDS011;14580;52.918;9.214;2024-01-27T03:13:02;1.70;;;1.60;;
27031;SDS011;14580;52.918;9.214;2024-01-27T03:15:27;2.97;;;1.70;;
27031;SDS011;14580;52.918;9.214;2024-01-27T03:17:53;2.87;;;2.17;;
27031;SDS011;14580;52.918;9.214;2024-01-27T03:20:19;0.73;;;0.63;;
27031;SDS011;14580;52.918;9.214;2024-01-27T03:22:45;1.17;;;1.03;;
27031;SDS011;14580;52.918;9.214;2024-01-27T03:25:11;7.73;;;1.07;;
27031;SDS011;14580;52.918;9.214;2024-01-27T03:27:37;4.10;;;1.90;;
27031;SDS011;14580;52.918;9.214;2024-01-27T03:30:03;3.97;;;0.83;;
27031;SDS011;14580;52.918;9.214;2024-01-27T03:32:30;10.90;;;0.80;;
27031;SDS011;14580;52.918;9.214;2024-01-27T03:34:59;7.70;;;1.67;;
27031;SDS011;14580;52.918;9.214;2024-01-27T03:37:26;1.93;;;1.17;;
27031;SDS011;14580;52.918;9.214;2024-01-27T03:39:52;2.50;;;0.83;;
27031;SDS011;14580;52.918;9.214;2024-01-27T03:42:18;2.37;;;0.47;;
27031;SDS011;14580;52.918;9.214;2024-01-27T03:44:44;5.57;;;1.13;;
27031;SDS011;14580;52.918;9.214;2024-01-27T03:47:10;3.40;;;0.90;;
27031;SDS011;14580;52.918;9.214;2024-01-27T03:49:35;4.80;;;1.33;;
27031;SDS011;14580;52.918;9.214;2024-01-27T03:52:02;1.70;;;1.60;;
27031;SDS011;14580;52.918;9.214;2024-01-27T03:54:28;0.90;;;0.90;;
27031;SDS011;14580;52.918;9.214;2024-01-27T03:56:54;2.07;;;1.97;;
27031;SDS011;14580;52.918;9.214;2024-01-27T03:59:20;5.97;;;0.73;;
27031;SDS011;14580;52.918;9.214;2024-01-27T04:01:46;4.30;;;1.90;;
27031;SDS011;14580;52.918;9.214;2024-01-27T04:04:12;11.30;;;2.30;;
27031;SDS011;14580;52.918;9.214;2024-01-27T04:06:39;7.03;;;2.00;;
27031;SDS011;14580;52.918;9.214;2024-01-27T04:09:06;8.20;;;1.80;;
27031;SDS011;14580;52.918;9.214;2024-01-27T04:11:35;8.87;;;1.57;;
27031;SDS011;14580;52.918;9.214;2024-01-27T04:14:03;3.90;;;1.57;;
27031;SDS011;14580;52.918;9.214;2024-01-27T04:16:30;9.10;;;1.07;;
27031;SDS011;14580;52.918;9.214;2024-01-27T04:18:56;1.53;;;0.90;;
27031;SDS011;14580;52.918;9.214;2024-01-27T04:21:22;1.63;;;1.53;;
27031;SDS011;14580;52.918;9.214;2024-01-27T04:23:48;6.50;;;1.50;;
27031;SDS011;14580;52.918;9.214;2024-01-27T04:26:14;4.70;;;1.60;;
27031;SDS011;14580;52.918;9.214;2024-01-27T04:28:40;0.90;;;0.73;;
27031;SDS011;14580;52.918;9.214;2024-01-27T04:31:06;5.23;;;2.03;;
27031;SDS011;14580;52.918;9.214;2024-01-27T04:33:32;4.83;;;2.17;;
27031;SDS011;14580;52.918;9.214;2024-01-27T04:35:58;6.27;;;1.20;;
27031;SDS011;14580;52.918;9.214;2024-01-27T04:38:24;6.97;;;1.77;;
27031;SDS011;14580;52.918;9.214;2024-01-27T04:40:50;6.20;;;2.17;;
27031;SDS011;14580;52.918;9.214;2024-01-27T04:43:18;4.73;;;0.73;;
27031;SDS011;14580;52.918;9.214;2024-01-27T04:45:45;2.07;;;1.40;;
27031;SDS011;14580;52.918;9.214;2024-01-27T04:48:13;5.60;;;1.30;;
27031;SDS011;14580;52.918;9.214;2024-01-27T04:50:38;6.00;;;1.67;;
27031;SDS011;14580;52.918;9.214;2024-01-27T04:53:04;5.40;;;2.20;;
27031;SDS011;14580;52.918;9.214;2024-01-27T04:55:30;11.13;;;2.07;;
27031;SDS011;14580;52.918;9.214;2024-01-27T04:57:56;6.20;;;0.70;;
27031;SDS011;14580;52.918;9.214;2024-01-27T05:00:23;0.80;;;0.80;;
27031;SDS011;14580;52.918;9.214;2024-01-27T05:02:52;1.60;;;0.80;;
27031;SDS011;14580;52.918;9.214;2024-01-27T05:05:18;1.50;;;0.40;;
27031;SDS011;14580;52.918;9.214;2024-01-27T05:07:43;4.70;;;1.30;;
27031;SDS011;14580;52.918;9.214;2024-01-27T05:10:12;5.77;;;1.50;;
27031;SDS011;14580;52.918;9.214;2024-01-27T05:12:40;6.03;;;1.20;;
27031;SDS011;14580;52.918;9.214;2024-01-27T05:15:06;0.50;;;0.43;;
27031;SDS011;14580;52.918;9.214;2024-01-27T05:17:33;5.13;;;1.30;;
27031;SDS011;14580;52.918;9.214;2024-01-27T05:19:59;5.37;;;1.20;;
27031;SDS011;14580;52.918;9.214;2024-01-27T05:22:25;0.53;;;0.53;;
27031;SDS011;14580;52.918;9.214;2024-01-27T05:24:50;0.60;;;0.60;;
27031;SDS011;14580;52.918;9.214;2024-01-27T05:27:16;1.10;;;1.00;;
27031;SDS011;14580;52.918;9.214;2024-01-27T05:29:42;6.33;;;0.93;;
27031;SDS011;14580;52.918;9.214;2024-01-27T05:32:08;5.07;;;1.97;;
27031;SDS011;14580;52.918;9.214;2024-01-27T05:34:34;4.17;;;1.70;;
27031;SDS011;14580;52.918;9.214;2024-01-27T05:37:00;11.63;;;1.93;;
27031;SDS011;14580;52.918;9.214;2024-01-27T05:39:26;0.73;;;0.67;;
27031;SDS011;14580;52.918;9.214;2024-01-27T05:41:54;0.90;;;0.70;;
27031;SDS011;14580;52.918;9.214;2024-01-27T05:44:20;8.27;;;0.70;;
27031;SDS011;14580;52.918;9.214;2024-01-27T05:46:46;3.30;;;1.67;;
27031;SDS011;14580;52.918;9.214;2024-01-27T05:49:12;3.30;;;1.00;;
27031;SDS011;14580;52.918;9.214;2024-01-27T05:51:37;4.00;;;1.20;;
27031;SDS011;14580;52.918;9.214;2024-01-27T05:54:03;1.60;;;0.63;;
27031;SDS011;14580;52.918;9.214;2024-01-27T05:56:29;3.10;;;1.07;;
27031;SDS011;14580;52.918;9.214;2024-01-27T05:58:55;5.50;;;2.17;;
27031;SDS011;14580;52.918;9.214;2024-01-27T06:01:21;6.80;;;0.47;;
27031;SDS011;14580;52.918;9.214;2024-01-27T06:03:47;0.20;;;0.20;;
27031;SDS011;14580;52.918;9.214;2024-01-27T06:06:12;1.67;;;1.07;;
27031;SDS011;14580;52.918;9.214;2024-01-27T06:08:38;2.10;;;1.30;;
27031;SDS011;14580;52.918;9.214;2024-01-27T06:11:05;7.77;;;0.83;;
27031;SDS011;14580;52.918;9.214;2024-01-27T06:13:31;4.83;;;1.53;;
27031;SDS011;14580;52.918;9.214;2024-01-27T06:15:59;4.70;;;0.77;;
27031;SDS011;14580;52.918;9.214;2024-01-27T06:18:25;2.33;;;1.20;;
27031;SDS011;14580;52.918;9.214;2024-01-27T06:20:51;2.97;;;1.10;;
27031;SDS011;14580;52.918;9.214;2024-01-27T06:23:17;1.53;;;1.23;;
27031;SDS011;14580;52.918;9.214;2024-01-27T06:25:43;1.97;;;0.80;;
27031;SDS011;14580;52.918;9.214;2024-01-27T06:28:08;4.00;;;1.03;;
27031;SDS011;14580;52.918;9.214;2024-01-27T06:30:35;3.07;;;1.43;;
27031;SDS011;14580;52.918;9.214;2024-01-27T06:33:00;8.93;;;1.57;;
27031;SDS011;14580;52.918;9.214;2024-01-27T06:35:26;1.20;;;0.70;;
27031;SDS011;14580;52.918;9.214;2024-01-27T06:37:52;5.00;;;1.90;;
27031;SDS011;14580;52.918;9.214;2024-01-27T06:40:18;8.07;;;1.50;;
27031;SDS011;14580;52.918;9.214;2024-01-27T06:42:44;1.70;;;1.50;;
27031;SDS011;14580;52.918;9.214;2024-01-27T06:45:09;2.33;;;1.40;;
27031;SDS011;14580;52.918;9.214;2024-01-27T06:47:35;4.23;;;0.70;;
27031;SDS011;14580;52.918;9.214;2024-01-27T06:50:01;4.37;;;1.37;;
27031;SDS011;14580;52.918;9.214;2024-01-27T06:52:28;6.00;;;1.83;;
27031;SDS011;14580;52.918;9.214;2024-01-27T06:54:53;5.03;;;1.63;;
27031;SDS011;14580;52.918;9.214;2024-01-27T06:57:20;2.63;;;1.33;;
27031;SDS011;14580;52.918;9.214;2024-01-27T06:59:48;0.80;;;0.80;;
27031;SDS011;14580;52.918;9.214;2024-01-27T07:02:26;9.03;;;1.97;;
27031;SDS011;14580;52.918;9.214;2024-01-27T07:04:53;4.17;;;1.23;;
27031;SDS011;14580;52.918;9.214;2024-01-27T07:07:23;3.00;;;1.57;;
27031;SDS011;14580;52.918;9.214;2024-01-27T07:09:57;5.80;;;2.60;;
27031;SDS011;14580;52.918;9.214;2024-01-27T07:12:23;7.77;;;1.57;;
27031;SDS011;14580;52.918;9.214;2024-01-27T07:14:49;4.47;;;1.00;;
27031;SDS011;14580;52.918;9.214;2024-01-27T07:17:28;4.83;;;1.13;;
27031;SDS011;14580;52.918;9.214;2024-01-27T07:19:54;0.93;;;0.83;;
27031;SDS011;14580;52.918;9.214;2024-01-27T07:22:20;3.20;;;1.30;;
27031;SDS011;14580;52.918;9.214;2024-01-27T07:24:46;5.73;;;1.90;;
27031;SDS011;14580;52.918;9.214;2024-01-27T07:27:16;3.80;;;2.13;;
27031;SDS011;14580;52.918;9.214;2024-01-27T07:29:42;6.37;;;1.93;;
27031;SDS011;14580;52.918;9.214;2024-01-27T07:32:07;4.33;;;1.90;;
27031;SDS011;14580;52.918;9.214;2024-01-27T07:34:38;3.80;;;1.33;;
27031;SDS011;14580;52.918;9.214;2024-01-27T07:37:08;6.03;;;1.10;;
27031;SDS011;14580;52.918;9.214;2024-01-27T07:39:34;2.87;;;1.10;;
27031;SDS011;14580;52.918;9.214;2024-01-27T07:41:59;1.53;;;1.03;;
27031;SDS011;14580;52.918;9.214;2024-01-27T07:44:25;4.83;;;1.43;;
27031;SDS011;14580;52.918;9.214;2024-01-27T07:46:52;6.57;;;2.13;;
27031;SDS011;14580;52.918;9.214;2024-01-27T07:49:18;1.33;;;1.17;;
27031;SDS011;14580;52.918;9.214;2024-01-27T07:51:44;11.03;;;1.90;;
27031;SDS011;14580;52.918;9.214;2024-01-27T07:54:10;3.17;;;1.60;;
27031;SDS011;14580;52.918;9.214;2024-01-27T07:56:37;5.33;;;2.17;;
27031;SDS011;14580;52.918;9.214;2024-01-27T07:59:03;4.57;;;1.47;;
27031;SDS011;14580;52.918;9.214;2024-01-27T08:01:29;4.00;;;1.77;;
27031;SDS011;14580;52.918;9.214;2024-01-27T08:03:54;2.63;;;1.03;;
27031;SDS011;14580;52.918;9.214;2024-01-27T08:06:27;5.03;;;2.23;;
27031;SDS011;14580;52.918;9.214;2024-01-27T08:08:55;3.43;;;1.40;;
27031;SDS011;14580;52.918;9.214;2024-01-27T08:11:21;1.20;;;1.10;;
27031;SDS011;14580;52.918;9.214;2024-01-27T08:13:47;3.57;;;1.67;;
27031;SDS011;14580;52.918;9.214;2024-01-27T08:16:13;5.30;;;1.50;;
27031;SDS011;14580;52.918;9.214;2024-01-27T08:18:39;2.87;;;1.17;;
27031;SDS011;14580;52.918;9.214;2024-01-27T08:21:07;3.17;;;1.47;;
27031;SDS011;14580;52.918;9.214;2024-01-27T08:23:33;7.50;;;1.00;;
27031;SDS011;14580;52.918;9.214;2024-01-27T08:25:59;1.77;;;0.60;;
27031;SDS011;14580;52.918;9.214;2024-01-27T08:28:25;3.43;;;1.10;;
27031;SDS011;14580;52.918;9.214;2024-01-27T08:30:51;3.13;;;1.53;;
27031;SDS011;14580;52.918;9.214;2024-01-27T08:33:17;2.63;;;1.47;;
27031;SDS011;14580;52.918;9.214;2024-01-27T08:35:43;4.97;;;1.53;;
27031;SDS011;14580;52.918;9.214;2024-01-27T08:38:12;17.47;;;2.13;;
27031;SDS011;14580;52.918;9.214;2024-01-27T08:40:37;4.53;;;1.63;;
27031;SDS011;14580;52.918;9.214;2024-01-27T08:43:03;1.63;;;1.53;;
27031;SDS011;14580;52.918;9.214;2024-01-27T08:45:31;4.67;;;2.03;;
27031;SDS011;14580;52.918;9.214;2024-01-27T08:47:57;7.50;;;2.07;;
27031;SDS011;14580;52.918;9.214;2024-01-27T08:50:24;5.90;;;1.77;;
27031;SDS011;14580;52.918;9.214;2024-01-27T08:52:50;7.00;;;2.53;;
27031;SDS011;14580;52.918;9.214;2024-01-27T08:55:15;5.67;;;1.80;;
27031;SDS011;14580;52.918;9.214;2024-01-27T08:57:46;6.57;;;1.80;;
27031;SDS011;14580;52.918;9.214;2024-01-27T09:00:12;3.13;;;1.67;;
27031;SDS011;14580;52.918;9.214;2024-01-27T09:02:38;12.80;;;2.03;;
27031;SDS011;14580;52.918;9.214;2024-01-27T09:05:04;5.27;;;1.67;;
27031;SDS011;14580;52.918;9.214;2024-01-27T09:07:31;5.70;;;1.50;;
27031;SDS011;14580;52.918;9.214;2024-01-27T09:09:58;2.30;;;1.60;;
27031;SDS011;14580;52.918;9.214;2024-01-27T09:12:24;3.97;;;2.07;;
27031;SDS011;14580;52.918;9.214;2024-01-27T09:14:50;7.73;;;1.97;;
27031;SDS011;14580;52.918;9.214;2024-01-27T09:17:15;8.27;;;2.53;;
27031;SDS011;14580;52.918;9.214;2024-01-27T09:19:42;2.03;;;1.27;;
27031;SDS011;14580;52.918;9.214;2024-01-27T09:22:07;4.33;;;1.80;;
27031;SDS011;14580;52.918;9.214;2024-01-27T09:24:33;7.40;;;2.43;;
27031;SDS011;14580;52.918;9.214;2024-01-27T09:26:59;8.10;;;2.53;;
27031;SDS011;14580;52.918;9.214;2024-01-27T09:29:26;5.33;;;1.83;;
27031;SDS011;14580;52.918;9.214;2024-01-27T09:31:52;10.60;;;2.70;;
27031;SDS011;14580;52.918;9.214;2024-01-27T09:34:18;10.07;;;3.10;;
27031;SDS011;14580;52.918;9.214;2024-01-27T09:36:44;4.37;;;2.17;;
27031;SDS011;14580;52.918;9.214;2024-01-27T09:39:10;9.43;;;2.10;;
27031;SDS011;14580;52.918;9.214;2024-01-27T09:41:35;5.27;;;2.20;;
27031;SDS011;14580;52.918;9.214;2024-01-27T09:44:03;3.13;;;1.77;;
27031;SDS011;14580;52.918;9.214;2024-01-27T09:46:30;7.13;;;2.17;;
27031;SDS011;14580;52.918;9.214;2024-01-27T09:48:57;3.67;;;2.67;;
27031;SDS011;14580;52.918;9.214;2024-01-27T09:51:24;2.40;;;1.90;;
27031;SDS011;14580;52.918;9.214;2024-01-27T09:53:51;9.30;;;2.87;;
27031;SDS011;14580;52.918;9.214;2024-01-27T09:56:18;7.37;;;2.57;;
27031;SDS011;14580;52.918;9.214;2024-01-27T09:58:45;2.60;;;2.20;;
27031;SDS011;14580;52.918;9.214;2024-01-27T10:01:13;10.13;;;2.70;;
27031;SDS011;14580;52.918;9.214;2024-01-27T10:03:43;8.43;;;3.33;;
27031;SDS011;14580;52.918;9.214;2024-01-27T10:06:09;6.77;;;2.97;;
27031;SDS011;14580;52.918;9.214;2024-01-27T10:08:35;5.77;;;3.13;;
27031;SDS011;14580;52.918;9.214;2024-01-27T10:11:09;5.27;;;2.90;;
27031;SDS011;14580;52.918;9.214;2024-01-27T10:13:35;7.00;;;3.30;;
27031;SDS011;14580;52.918;9.214;2024-01-27T10:16:02;6.20;;;2.50;;
27031;SDS011;14580;52.918;9.214;2024-01-27T10:18:30;7.87;;;3.30;;
27031;SDS011;14580;52.918;9.214;2024-01-27T10:20:57;6.70;;;3.43;;
27031;SDS011;14580;52.918;9.214;2024-01-27T10:23:23;6.47;;;3.23;;
27031;SDS011;14580;52.918;9.214;2024-01-27T10:25:49;5.20;;;3.30;;
27031;SDS011;14580;52.918;9.214;2024-01-27T10:28:17;5.40;;;2.93;;
27031;SDS011;14580;52.918;9.214;2024-01-27T10:30:44;4.83;;;2.87;;
27031;SDS011;14580;52.918;9.214;2024-01-27T10:33:11;7.43;;;3.40;;
27031;SDS011;14580;52.918;9.214;2024-01-27T10:35:41;4.63;;;2.70;;
27031;SDS011;14580;52.918;9.214;2024-01-27T10:38:08;8.27;;;3.27;;
27031;SDS011;14580;52.918;9.214;2024-01-27T10:40:37;8.90;;;4.10;;
27031;SDS011;14580;52.918;9.214;2024-01-27T10:43:04;12.70;;;3.63;;
27031;SDS011;14580;52.918;9.214;2024-01-27T10:45:36;7.47;;;3.07;;
27031;SDS011;14580;52.918;9.214;2024-01-27T10:48:04;6.33;;;2.97;;
27031;SDS011;14580;52.918;9.214;2024-01-27T10:50:37;9.60;;;3.13;;
27031;SDS011;14580;52.918;9.214;2024-01-27T10:53:09;9.23;;;4.03;;
27031;SDS011;14580;52.918;9.214;2024-01-27T10:55:56;10.50;;;3.57;;
27031;SDS011;14580;52.918;9.214;2024-01-27T10:58:23;5.73;;;4.07;;
27031;SDS011;14580;52.918;9.214;2024-01-27T11:00:53;7.03;;;2.97;;
27031;SDS011;14580;52.918;9.214;2024-01-27T11:03:20;4.13;;;2.63;;
27031;SDS011;14580;52.918;9.214;2024-01-27T11:05:47;10.60;;;4.07;;
27031;SDS011;14580;52.918;9.214;2024-01-27T11:08:16;8.63;;;3.30;;
27031;SDS011;14580;52.918;9.214;2024-01-27T11:10:43;7.40;;;3.37;;
27031;SDS011;14580;52.918;9.214;2024-01-27T11:13:09;10.17;;;3.43;;
27031;SDS011;14580;52.918;9.214;2024-01-27T11:15:36;6.70;;;3.33;;
27031;SDS011;14580;52.918;9.214;2024-01-27T11:18:02;7.00;;;3.00;;
27031;SDS011;14580;52.918;9.214;2024-01-27T11:20:33;7.37;;;2.90;;
27031;SDS011;14580;52.918;9.214;2024-01-27T11:23:12;7.43;;;3.73;;
27031;SDS011;14580;52.918;9.214;2024-01-27T11:25:41;6.47;;;2.83;;
27031;SDS011;14580;52.918;9.214;2024-01-27T11:28:11;7.67;;;2.60;;
27031;SDS011;14580;52.918;9.214;2024-01-27T11:30:45;6.80;;;3.37;;
27031;SDS011;14580;52.918;9.214;2024-01-27T11:33:12;8.03;;;3.07;;
27031;SDS011;14580;52.918;9.214;2024-01-27T11:35:38;8.00;;;4.47;;
27031;SDS011;14580;52.918;9.214;2024-01-27T11:38:04;6.07;;;3.47;;
27031;SDS011;14580;52.918;9.214;2024-01-27T11:40:30;7.70;;;3.00;;
27031;SDS011;14580;52.918;9.214;2024-01-27T11:42:58;5.87;;;3.47;;
27031;SDS011;14580;52.918;9.214;2024-01-27T11:45:26;3.43;;;2.50;;
27031;SDS011;14580;52.918;9.214;2024-01-27T11:47:54;5.10;;;3.23;;
27031;SDS011;14580;52.918;9.214;2024-01-27T11:50:21;8.40;;;3.50;;
27031;SDS011;14580;52.918;9.214;2024-01-27T11:52:51;6.77;;;3.20;;
27031;SDS011;14580;52.918;9.214;2024-01-27T11:55:27;5.00;;;3.17;;
27031;SDS011;14580;52.918;9.214;2024-01-27T11:57:52;4.00;;;2.60;;
27031;SDS011;14580;52.918;9.214;2024-01-27T12:00:18;9.07;;;3.10;;
27031;SDS011;14580;52.918;9.214;2024-01-27T12:02:44;4.03;;;2.80;;
27031;SDS011;14580;52.918;9.214;2024-01-27T12:05:15;8.30;;;3.03;;
27031;SDS011;14580;52.918;9.214;2024-01-27T12:07:40;6.40;;;2.97;;
27031;SDS011;14580;52.918;9.214;2024-01-27T12:10:07;6.90;;;3.80;;
27031;SDS011;14580;52.918;9.214;2024-01-27T12:12:33;5.07;;;2.67;;
27031;SDS011;14580;52.918;9.214;2024-01-27T12:14:59;4.13;;;2.80;;
27031;SDS011;14580;52.918;9.214;2024-01-27T12:17:27;4.50;;;2.70;;
27031;SDS011;14580;52.918;9.214;2024-01-27T12:19:53;6.60;;;3.17;;
27031;SDS011;14580;52.918;9.214;2024-01-27T12:22:23;6.17;;;2.90;;
27031;SDS011;14580;52.918;9.214;2024-01-27T12:24:53;9.13;;;3.50;;
27031;SDS011;14580;52.918;9.214;2024-01-27T12:27:23;7.63;;;3.30;;
27031;SDS011;14580;52.918;9.214;2024-01-27T12:29:52;7.63;;;2.67;;
27031;SDS011;14580;52.918;9.214;2024-01-27T12:32:21;11.80;;;3.00;;
27031;SDS011;14580;52.918;9.214;2024-01-27T12:34:46;6.23;;;3.03;;
27031;SDS011;14580;52.918;9.214;2024-01-27T12:37:15;3.13;;;2.60;;
27031;SDS011;14580;52.918;9.214;2024-01-27T12:39:44;6.07;;;2.83;;
27031;SDS011;14580;52.918;9.214;2024-01-27T12:42:10;4.47;;;2.87;;
27031;SDS011;14580;52.918;9.214;2024-01-27T12:44:37;3.53;;;2.50;;
27031;SDS011;14580;52.918;9.214;2024-01-27T12:47:04;3.53;;;2.27;;
27031;SDS011;14580;52.918;9.214;2024-01-27T12:49:30;4.30;;;2.30;;
27031;SDS011;14580;52.918;9.214;2024-01-27T12:51:56;4.90;;;2.70;;
27031;SDS011;14580;52.918;9.214;2024-01-27T12:54:22;4.60;;;2.43;;
27031;SDS011;14580;52.918;9.214;2024-01-27T12:56:48;5.27;;;2.63;;
27031;SDS011;14580;52.918;9.214;2024-01-27T12:59:14;9.97;;;4.33;;
27031;SDS011;14580;52.918;9.214;2024-01-27T13:01:40;8.10;;;3.20;;
27031;SDS011;14580;52.918;9.214;2024-01-27T13:04:06;5.80;;;3.10;;
27031;SDS011;14580;52.918;9.214;2024-01-27T13:06:32;3.43;;;2.40;;
27031;SDS011;14580;52.918;9.214;2024-01-27T13:08:58;2.73;;;2.23;;
27031;SDS011;14580;52.918;9.214;2024-01-27T13:11:24;5.23;;;2.80;;
27031;SDS011;14580;52.918;9.214;2024-01-27T13:13:50;4.20;;;2.70;;
27031;SDS011;14580;52.918;9.214;2024-01-27T13:16:16;5.67;;;2.63;;
27031;SDS011;14580;52.918;9.214;2024-01-27T13:18:42;4.53;;;2.43;;
27031;SDS011;14580;52.918;9.214;2024-01-27T13:21:09;8.00;;;3.30;;
27031;SDS011;14580;52.918;9.214;2024-01-27T13:23:35;3.30;;;2.20;;
27031;SDS011;14580;52.918;9.214;2024-01-27T13:26:01;5.43;;;2.53;;
27031;SDS011;14580;52.918;9.214;2024-01-27T13:28:27;5.50;;;2.37;;
27031;SDS011;14580;52.918;9.214;2024-01-27T13:30:52;10.33;;;3.07;;
27031;SDS011;14580;52.918;9.214;2024-01-27T13:33:18;7.57;;;2.53;;
27031;SDS011;14580;52.918;9.214;2024-01-27T13:35:44;6.37;;;2.20;;
27031;SDS011;14580;52.918;9.214;2024-01-27T13:38:12;4.33;;;2.20;;
27031;SDS011;14580;52.918;9.214;2024-01-27T13:40:38;8.23;;;2.23;;
27031;SDS011;14580;52.918;9.214;2024-01-27T13:43:07;10.93;;;2.73;;
27031;SDS011;14580;52.918;9.214;2024-01-27T13:45:33;3.77;;;2.70;;
27031;SDS011;14580;52.918;9.214;2024-01-27T13:48:00;7.60;;;3.17;;
27031;SDS011;14580;52.918;9.214;2024-01-27T13:50:26;6.00;;;2.23;;
27031;SDS011;14580;52.918;9.214;2024-01-27T13:52:52;5.70;;;2.50;;
27031;SDS011;14580;52.918;9.214;2024-01-27T13:55:18;6.37;;;3.00;;
27031;SDS011;14580;52.918;9.214;2024-01-27T13:57:44;6.83;;;3.73;;
27031;SDS011;14580;52.918;9.214;2024-01-27T14:00:10;4.10;;;2.80;;
27031;SDS011;14580;52.918;9.214;2024-01-27T14:02:36;4.90;;;2.27;;
27031;SDS011;14580;52.918;9.214;2024-01-27T14:05:03;6.60;;;3.10;;
27031;SDS011;14580;52.918;9.214;2024-01-27T14:07:29;11.57;;;3.93;;
27031;SDS011;14580;52.918;9.214;2024-01-27T14:09:57;7.27;;;2.80;;
27031;SDS011;14580;52.918;9.214;2024-01-27T14:12:23;3.97;;;2.83;;
27031;SDS011;14580;52.918;9.214;2024-01-27T14:14:49;6.97;;;2.67;;
27031;SDS011;14580;52.918;9.214;2024-01-27T14:17:15;4.83;;;2.57;;
27031;SDS011;14580;52.918;9.214;2024-01-27T14:19:42;7.40;;;2.73;;
27031;SDS011;14580;52.918;9.214;2024-01-27T14:22:08;6.77;;;3.10;;
27031;SDS011;14580;52.918;9.214;2024-01-27T14:24:34;8.50;;;3.03;;
27031;SDS011;14580;52.918;9.214;2024-01-27T14:27:00;7.57;;;3.23;;
27031;SDS011;14580;52.918;9.214;2024-01-27T14:29:26;5.60;;;2.50;;
27031;SDS011;14580;52.918;9.214;2024-01-27T14:31:52;6.20;;;2.53;;
27031;SDS011;14580;52.918;9.214;2024-01-27T14:34:17;8.43;;;2.53;;
27031;SDS011;14580;52.918;9.214;2024-01-27T14:36:43;5.20;;;2.50;;
27031;SDS011;14580;52.918;9.214;2024-01-27T14:39:09;6.73;;;2.40;;
27031;SDS011;14580;52.918;9.214;2024-01-27T14:41:36;7.87;;;2.63;;